Terminal Aerodrome Forecast
Issued by NWS

Home | Current Version | Previous Version | Text Only | Print | Product List | Glossary On
Versions: 1 2 3 4 5 6 7 8 9 10 11 12 13 14 15 16 17 18 19 20 21 22 23 24
065
FTUS42 KMHX 311750 AAC
TAFOAJ
TAF AMD
KOAJ 311750Z 3118/0118 06005KT 2SM TSRA BR BKN010CB
     FM311900 06005KT P6SM VCSH BKN040
     FM010300 VRB04KT P6SM SCT025 OVC050
     FM010600 VRB04KT P6SM OVC007
     FM011200 04006KT 6SM -SHRA OVC007
     FM011600 06006KT 6SM -SHRA BKN050
      AMD LTD TO CLD VIS AND WIND=

USA.gov is the U.S. government's official web portal to all federal, state and local government web resources and services.